Time;durP1;ratioP1;P1;durP2;ratioP2;P2;SDS_P1;SDS_P2;PMS_P1;PMS_P2;Temp;Humidity;BMP_temperature;BMP_pressure;BME280_temperature;BME280_humidity;BME280_pressure;Samples;Min_cycle;Max_cycle;Signal;HPM_P1;HPM_P2
2023/08/17 00:01:48;;;;;;;4.65;1.55;;;21.60;64.70;;;;;;5022146;28;20065;-68
2023/08/17 00:04:14;;;;;;;6.35;2.00;;;21.60;64.70;;;;;;5022538;28;20061;-67
2023/08/17 00:06:40;;;;;;;5.57;1.95;;;21.50;64.70;;;;;;5028757;28;20052;-68
2023/08/17 00:09:06;;;;;;;4.10;1.67;;;21.50;64.60;;;;;;5028940;28;20037;-67
2023/08/17 00:11:32;;;;;;;6.35;1.80;;;21.50;64.50;;;;;;5028952;28;20692;-67
2023/08/17 00:13:58;;;;;;;4.63;1.90;;;21.50;64.50;;;;;;5054601;28;20025;-67
2023/08/17 00:16:24;;;;;;;6.78;2.13;;;21.50;64.50;;;;;;5026921;28;20414;-67
2023/08/17 00:18:50;;;;;;;5.65;2.08;;;21.50;64.40;;;;;;5018300;28;20026;-67
2023/08/17 00:21:16;;;;;;;7.53;1.92;;;21.50;65.00;;;;;;5027062;28;20033;-67
2023/08/17 00:23:41;;;;;;;6.38;1.80;;;21.50;64.40;;;;;;5028412;28;20053;-67
2023/08/17 00:26:08;;;;;;;4.05;1.80;;;21.50;64.40;;;;;;5024563;28;20348;-67
2023/08/17 00:28:35;;;;;;;4.95;1.67;;;21.50;64.30;;;;;;5026499;28;20167;-68
2023/08/17 00:31:01;;;;;;;5.05;1.80;;;21.50;64.20;;;;;;5022978;28;20037;-67
2023/08/17 00:33:27;;;;;;;6.05;1.95;;;21.50;64.20;;;;;;5050481;28;20022;-67
2023/08/17 00:35:53;;;;;;;4.57;1.95;;;21.50;64.30;;;;;;5012375;28;20022;-68
2023/08/17 00:38:18;;;;;;;5.00;1.83;;;21.50;64.30;;;;;;5027950;28;20032;-67
2023/08/17 00:40:44;;;;;;;5.20;1.80;;;21.50;64.50;;;;;;5025778;28;20370;-67
2023/08/17 00:43:10;;;;;;;4.85;1.70;;;21.50;64.50;;;;;;5011461;28;20034;-67
2023/08/17 00:45:36;;;;;;;7.15;2.20;;;21.40;64.40;;;;;;5009608;28;20060;-67
2023/08/17 00:48:04;;;;;;;4.80;1.92;;;21.40;64.40;;;;;;5047778;28;20038;-67
2023/08/17 00:50:31;;;;;;;5.15;1.70;;;21.40;64.40;;;;;;5023310;28;20089;-67
2023/08/17 00:52:57;;;;;;;5.43;2.00;;;21.40;64.60;;;;;;5028121;28;20029;-67
2023/08/17 00:55:24;;;;;;;3.42;1.60;;;21.40;64.70;;;;;;5049526;28;20358;-67
2023/08/17 00:57:51;;;;;;;6.20;1.80;;;21.40;65.10;;;;;;5027754;28;20076;-67
2023/08/17 01:00:18;;;;;;;3.05;1.50;;;21.40;65.20;;;;;;5022118;28;20458;-67
2023/08/17 01:02:45;;;;;;;4.97;1.67;;;21.40;65.30;;;;;;5050616;28;20100;-67
2023/08/17 01:05:10;;;;;;;5.18;1.98;;;21.30;65.20;;;;;;5028393;28;20125;-68
2023/08/17 01:07:37;;;;;;;7.50;2.00;;;21.30;65.30;;;;;;5024473;28;20160;-67
2023/08/17 01:10:06;;;;;;;5.20;1.75;;;21.30;65.40;;;;;;5010905;28;20025;-67
2023/08/17 01:12:56;;;;;;;5.32;1.98;;;21.30;65.60;;;;;;5021253;28;20466;-67
2023/08/17 01:15:35;;;;;;;4.32;2.13;;;21.30;65.70;;;;;;5022896;28;20033;-67
2023/08/17 01:18:04;;;;;;;6.35;2.10;;;21.20;65.90;;;;;;5020117;28;20033;-67
2023/08/17 01:20:31;;;;;;;8.05;2.80;;;21.20;65.90;;;;;;5019353;28;20034;-67
2023/08/17 01:23:05;;;;;;;5.15;1.90;;;21.20;65.80;;;;;;5024667;28;20351;-67
2023/08/17 01:25:36;;;;;;;5.55;2.08;;;21.20;65.90;;;;;;5038318;28;20038;-67
2023/08/17 01:28:02;;;;;;;5.88;2.22;;;21.20;65.90;;;;;;5026098;28;20029;-67
2023/08/17 01:30:33;;;;;;;4.35;2.00;;;21.10;65.90;;;;;;5025684;28;20475;-68
2023/08/17 01:33:06;;;;;;;5.85;2.45;;;21.10;66.00;;;;;;5023724;28;20033;-67
2023/08/17 01:35:32;;;;;;;6.72;2.03;;;21.10;66.00;;;;;;5004098;28;20059;-67
2023/08/17 01:38:07;;;;;;;6.63;2.25;;;21.10;66.00;;;;;;5026409;28;20036;-67
2023/08/17 01:40:33;;;;;;;4.90;2.22;;;21.10;66.00;;;;;;5026775;28;20033;-67
2023/08/17 01:43:02;;;;;;;5.38;2.10;;;21.10;65.90;;;;;;5025793;28;20442;-67
2023/08/17 01:45:28;;;;;;;6.72;2.35;;;21.10;65.90;;;;;;5025489;28;20049;-67
2023/08/17 01:47:55;;;;;;;4.90;2.10;;;21.00;66.00;;;;;;5009357;28;20061;-67
2023/08/17 01:50:21;;;;;;;7.15;2.45;;;21.00;66.10;;;;;;5024359;28;20497;-67
2023/08/17 01:52:52;;;;;;;5.03;2.08;;;21.00;66.10;;;;;;5024222;28;20036;-67
2023/08/17 01:55:20;;;;;;;5.30;2.22;;;21.00;66.10;;;;;;5027744;28;20029;-67
2023/08/17 01:57:46;;;;;;;7.45;2.05;;;21.00;66.20;;;;;;5022699;28;20029;-67
2023/08/17 02:00:13;;;;;;;6.13;2.05;;;21.00;66.30;;;;;;5024136;28;20084;-67
2023/08/17 02:02:41;;;;;;;4.97;2.15;;;20.90;66.30;;;;;;5023592;28;20042;-67
2023/08/17 02:05:08;;;;;;;4.40;2.00;;;20.90;66.40;;;;;;5026758;28;20025;-67
2023/08/17 02:07:33;;;;;;;6.63;2.33;;;20.90;66.40;;;;;;5023251;28;20032;-67
2023/08/17 02:10:00;;;;;;;6.65;2.42;;;20.90;66.50;;;;;;5024967;28;20429;-67
2023/08/17 02:12:26;;;;;;;6.63;2.45;;;20.90;66.40;;;;;;5022472;28;20112;-67
2023/08/17 02:14:53;;;;;;;6.20;2.38;;;20.80;66.40;;;;;;5015024;28;20100;-67
2023/08/17 02:17:21;;;;;;;7.95;2.83;;;20.80;66.60;;;;;;5024384;28;20057;-67
2023/08/17 02:19:47;;;;;;;6.53;1.95;;;20.80;66.70;;;;;;5023434;28;20104;-67
2023/08/17 02:22:14;;;;;;;5.57;2.10;;;20.80;66.80;;;;;;5023887;28;20018;-68
2023/08/17 02:24:40;;;;;;;8.68;2.83;;;20.70;66.80;;;;;;5027210;28;20105;-67
2023/08/17 02:27:07;;;;;;;5.53;1.85;;;20.70;66.80;;;;;;5023793;28;20025;-67
2023/08/17 02:29:33;;;;;;;6.88;2.13;;;20.70;66.80;;;;;;5024236;28;20454;-67
2023/08/17 02:31:59;;;;;;;4.40;1.90;;;20.70;66.80;;;;;;5022575;28;20083;-67
2023/08/17 02:34:26;;;;;;;5.80;2.13;;;20.70;66.80;;;;;;5027236;28;20025;-67
2023/08/17 02:36:52;;;;;;;4.90;1.85;;;20.70;66.90;;;;;;5026728;28;20098;-67
2023/08/17 02:39:17;;;;;;;4.70;1.98;;;20.70;67.10;;;;;;5026920;28;20029;-67
2023/08/17 02:41:44;;;;;;;6.13;2.05;;;20.70;67.00;;;;;;5028463;28;20033;-67
2023/08/17 02:44:10;;;;;;;8.50;2.13;;;20.60;66.90;;;;;;5025138;28;20025;-68
2023/08/17 02:46:36;;;;;;;8.00;2.30;;;20.70;67.00;;;;;;5021620;28;20120;-67
2023/08/17 02:49:02;;;;;;;5.43;1.92;;;20.60;66.90;;;;;;5006521;28;20136;-67
2023/08/17 02:51:28;;;;;;;4.85;1.90;;;20.60;66.90;;;;;;5021114;28;20048;-67
2023/08/17 02:53:54;;;;;;;5.85;2.35;;;20.60;66.90;;;;;;5024117;28;20117;-67
2023/08/17 02:56:19;;;;;;;6.57;2.10;;;20.60;66.90;;;;;;5024445;28;20036;-67
2023/08/17 02:58:47;;;;;;;4.88;1.88;;;20.60;66.80;;;;;;5022450;28;20385;-67
2023/08/17 03:01:12;;;;;;;5.10;1.80;;;20.60;66.80;;;;;;5021277;28;20104;-67
2023/08/17 03:03:38;;;;;;;5.05;1.98;;;20.60;66.90;;;;;;5027525;28;20355;-67
2023/08/17 03:06:06;;;;;;;5.72;2.00;;;20.60;67.60;;;;;;5024449;28;20029;-67
2023/08/17 03:08:32;;;;;;;5.72;2.03;;;20.60;66.90;;;;;;5023860;28;20150;-67
2023/08/17 03:10:57;;;;;;;5.25;2.15;;;20.60;66.90;;;;;;5022861;28;20029;-67
2023/08/17 03:13:23;;;;;;;6.47;1.90;;;20.50;66.80;;;;;;5026877;28;20022;-67
2023/08/17 03:15:50;;;;;;;5.43;2.38;;;20.50;66.80;;;;;;5023563;28;20451;-67
2023/08/17 03:18:15;;;;;;;5.47;2.10;;;20.60;66.90;;;;;;5025164;28;20362;-67
2023/08/17 03:20:41;;;;;;;4.82;1.80;;;20.60;66.90;;;;;;5025403;28;20036;-67
2023/08/17 03:23:08;;;;;;;5.45;2.35;;;20.50;66.90;;;;;;5024245;28;20105;-67
2023/08/17 03:25:34;;;;;;;5.40;1.83;;;20.50;66.90;;;;;;5023383;28;20032;-67
2023/08/17 03:28:00;;;;;;;7.00;2.38;;;20.50;67.00;;;;;;5046320;28;20104;-67
2023/08/17 03:30:26;;;;;;;4.63;1.98;;;20.50;67.00;;;;;;5022386;28;20029;-67
2023/08/17 03:32:52;;;;;;;3.78;1.80;;;20.50;67.10;;;;;;5048404;28;20014;-67
2023/08/17 03:35:18;;;;;;;4.85;1.90;;;20.50;67.10;;;;;;5018578;28;20320;-67
2023/08/17 03:37:45;;;;;;;7.93;2.33;;;20.50;67.20;;;;;;5023723;28;20110;-67
2023/08/17 03:40:11;;;;;;;7.43;2.20;;;20.40;67.90;;;;;;5020062;28;20048;-67
2023/08/17 03:42:41;;;;;;;9.20;2.20;;;20.40;67.30;;;;;;5018991;28;20421;-67
2023/08/17 03:45:07;;;;;;;5.53;2.13;;;20.40;67.40;;;;;;5022164;28;20079;-67
2023/08/17 03:47:33;;;;;;;5.30;2.28;;;20.40;67.40;;;;;;5021594;28;20109;-67
2023/08/17 03:50:01;;;;;;;6.72;2.67;;;20.30;67.50;;;;;;5020641;28;20131;-67
2023/08/17 03:52:27;;;;;;;5.32;2.20;;;20.30;67.50;;;;;;5020166;28;20478;-67
2023/08/17 03:54:53;;;;;;;5.20;1.95;;;20.30;67.50;;;;;;5051225;28;20026;-67
2023/08/17 03:57:18;;;;;;;5.18;2.00;;;20.30;67.50;;;;;;5022307;28;20026;-67
2023/08/17 03:59:44;;;;;;;7.22;2.20;;;20.30;67.60;;;;;;5035152;28;20034;-67
2023/08/17 04:02:10;;;;;;;5.55;1.95;;;20.30;67.70;;;;;;5023654;28;20025;-67
2023/08/17 04:04:37;;;;;;;4.90;2.17;;;20.20;67.70;;;;;;5029176;28;20029;-67
2023/08/17 04:07:02;;;;;;;5.50;1.85;;;20.30;67.80;;;;;;5021673;28;20026;-67
2023/08/17 04:09:28;;;;;;;6.78;2.05;;;20.20;67.70;;;;;;5026544;28;20034;-67
2023/08/17 04:11:55;;;;;;;8.85;2.30;;;20.20;67.80;;;;;;5050001;28;20029;-67
2023/08/17 04:14:21;;;;;;;4.85;1.75;;;20.20;67.90;;;;;;5023102;28;20037;-67
2023/08/17 04:16:47;;;;;;;5.15;2.30;;;20.20;67.90;;;;;;5009785;28;20025;-67
2023/08/17 04:19:13;;;;;;;7.90;2.40;;;20.10;68.00;;;;;;5030716;28;20041;-67
2023/08/17 04:21:39;;;;;;;5.32;2.00;;;20.10;68.00;;;;;;5046443;28;20034;-67
2023/08/17 04:24:05;;;;;;;5.50;2.05;;;20.10;68.00;;;;;;5006921;28;20033;-67
2023/08/17 04:26:31;;;;;;;6.47;1.83;;;20.10;68.00;;;;;;5037672;28;20120;-67
2023/08/17 04:28:57;;;;;;;9.23;2.42;;;20.00;68.00;;;;;;5028336;28;20148;-67
2023/08/17 04:31:23;;;;;;;7.93;2.35;;;20.10;68.10;;;;;;5034393;28;20025;-67
2023/08/17 04:33:57;;;;;;;7.63;2.00;;;20.00;68.10;;;;;;5018989;28;20079;-68
2023/08/17 04:36:22;;;;;;;4.88;2.00;;;20.00;68.90;;;;;;5020426;28;20042;-67
2023/08/17 04:38:48;;;;;;;5.55;2.33;;;20.00;68.30;;;;;;5010322;28;20022;-67
2023/08/17 04:41:14;;;;;;;6.82;2.25;;;20.00;68.30;;;;;;5046279;28;20469;-67
2023/08/17 04:43:40;;;;;;;5.55;1.88;;;20.00;68.40;;;;;;5025078;28;20028;-67
2023/08/17 04:46:06;;;;;;;5.43;2.08;;;20.00;68.40;;;;;;5023949;28;20030;-67
2023/08/17 04:48:32;;;;;;;6.38;1.80;;;20.00;68.40;;;;;;5022552;28;20056;-68
2023/08/17 04:50:57;;;;;;;4.72;1.90;;;20.00;68.40;;;;;;5022142;28;20042;-68
2023/08/17 04:53:24;;;;;;;4.78;1.98;;;20.00;68.40;;;;;;5009825;28;20781;-67
2023/08/17 04:55:50;;;;;;;4.35;1.67;;;20.00;68.40;;;;;;5016535;28;20116;-68
2023/08/17 04:58:16;;;;;;;5.25;2.00;;;20.00;68.50;;;;;;5038370;28;20022;-67
2023/08/17 05:00:42;;;;;;;6.90;2.30;;;20.00;68.50;;;;;;5048049;28;20377;-68
2023/08/17 05:03:07;;;;;;;5.35;1.90;;;20.00;68.50;;;;;;5050280;28;20164;-68
2023/08/17 05:05:38;;;;;;;6.25;2.25;;;20.00;68.50;;;;;;5019933;28;20032;-68
2023/08/17 05:08:09;;;;;;;6.82;2.38;;;20.00;68.60;;;;;;5062672;28;20110;-68
2023/08/17 05:10:35;;;;;;;6.40;2.05;;;20.00;68.60;;;;;;5036099;28;20021;-68
2023/08/17 05:13:01;;;;;;;7.05;2.22;;;20.00;68.60;;;;;;5036538;28;20029;-68
2023/08/17 05:15:28;;;;;;;8.13;2.05;;;20.00;68.60;;;;;;5053531;28;20022;-68
2023/08/17 05:17:56;;;;;;;5.15;1.95;;;20.00;68.60;;;;;;5053017;28;20116;-68
2023/08/17 05:20:22;;;;;;;5.45;2.22;;;20.00;68.50;;;;;;5036511;28;20033;-68
2023/08/17 05:22:48;;;;;;;5.22;1.90;;;20.10;68.40;;;;;;5051779;28;20025;-68
2023/08/17 05:25:14;;;;;;;5.75;2.17;;;20.10;68.40;;;;;;5035995;28;20041;-68
2023/08/17 05:27:41;;;;;;;6.57;2.13;;;20.20;68.50;;;;;;5030569;28;20172;-68
2023/08/17 05:30:08;;;;;;;7.97;2.28;;;20.20;68.40;;;;;;5036088;28;20360;-68
2023/08/17 05:32:34;;;;;;;6.35;2.10;;;20.20;68.40;;;;;;5029618;28;20018;-68
2023/08/17 05:35:00;;;;;;;8.23;2.08;;;20.30;68.40;;;;;;5017612;28;20038;-68
2023/08/17 05:37:26;;;;;;;5.13;1.90;;;20.30;68.20;;;;;;5020794;28;20026;-68
2023/08/17 05:39:51;;;;;;;5.82;2.20;;;20.40;68.10;;;;;;5031285;28;20199;-68
2023/08/17 05:42:17;;;;;;;8.82;1.70;;;20.50;67.90;;;;;;5026406;28;20021;-68
2023/08/17 05:44:44;;;;;;;6.35;2.10;;;20.50;67.80;;;;;;5031192;28;20041;-68
2023/08/17 05:47:10;;;;;;;7.28;2.13;;;20.60;67.60;;;;;;5027443;28;20025;-67
2023/08/17 05:49:37;;;;;;;6.00;2.00;;;20.70;67.50;;;;;;5003323;28;20056;-68
2023/08/17 05:52:03;;;;;;;5.97;2.03;;;20.80;67.50;;;;;;5032347;28;20026;-68
2023/08/17 05:54:29;;;;;;;5.45;1.88;;;20.70;67.30;;;;;;5036222;28;20017;-68
2023/08/17 05:56:55;;;;;;;8.05;2.15;;;20.80;67.10;;;;;;5024128;28;20447;-67
2023/08/17 05:59:20;;;;;;;5.43;1.80;;;20.80;67.00;;;;;;5009269;28;20347;-68
2023/08/17 06:01:46;;;;;;;8.10;1.85;;;20.80;66.80;;;;;;5020417;28;20037;-68
2023/08/17 06:04:12;;;;;;;4.03;1.80;;;20.80;66.80;;;;;;5019821;28;20112;-67
2023/08/17 06:06:38;;;;;;;3.30;1.48;;;20.90;66.70;;;;;;5025036;28;20452;-67
2023/08/17 06:09:04;;;;;;;5.97;1.92;;;20.90;66.60;;;;;;5043154;28;20474;-68
2023/08/17 06:11:29;;;;;;;3.85;1.85;;;20.90;66.60;;;;;;5049693;28;20057;-68
2023/08/17 06:13:56;;;;;;;5.65;2.15;;;20.90;66.60;;;;;;5035903;28;20104;-68
2023/08/17 06:16:22;;;;;;;5.50;2.08;;;20.90;66.70;;;;;;5034895;28;20462;-66
2023/08/17 06:18:47;;;;;;;5.00;1.70;;;20.80;66.70;;;;;;5037762;28;20025;-67
2023/08/17 06:21:13;;;;;;;5.20;1.67;;;20.80;66.90;;;;;;5029550;28;20370;-68
2023/08/17 06:23:39;;;;;;;7.78;2.22;;;20.80;66.90;;;;;;5020950;28;20116;-68
2023/08/17 06:26:04;;;;;;;3.97;1.90;;;20.70;66.90;;;;;;5035346;28;20032;-67
2023/08/17 06:28:30;;;;;;;5.22;2.17;;;20.70;67.10;;;;;;5049200;28;20033;-68
2023/08/17 06:30:56;;;;;;;6.22;2.08;;;20.70;67.20;;;;;;5016149;28;20033;-67
2023/08/17 06:33:22;;;;;;;6.22;2.22;;;20.70;67.20;;;;;;5019249;28;20039;-67
2023/08/17 06:35:49;;;;;;;4.07;1.75;;;20.70;67.30;;;;;;5034776;28;20037;-67
2023/08/17 06:38:14;;;;;;;6.00;1.77;;;20.70;67.30;;;;;;5024422;28;20049;-67
2023/08/17 06:40:40;;;;;;;9.32;2.05;;;20.70;67.30;;;;;;5020660;28;20135;-67
2023/08/17 06:43:06;;;;;;;6.18;1.95;;;20.70;67.30;;;;;;5022722;28;20428;-67
2023/08/17 06:45:32;;;;;;;6.28;1.90;;;20.70;67.30;;;;;;5016967;28;20189;-67
2023/08/17 06:47:58;;;;;;;4.38;1.80;;;20.80;67.30;;;;;;5035673;28;20052;-67
2023/08/17 06:50:26;;;;;;;5.65;2.30;;;20.80;67.30;;;;;;5019324;28;20033;-67
2023/08/17 06:52:52;;;;;;;5.18;1.80;;;20.90;67.30;;;;;;5027563;28;20048;-67
2023/08/17 06:55:18;;;;;;;8.35;2.13;;;20.90;67.20;;;;;;5017975;28;20022;-67
2023/08/17 06:57:44;;;;;;;4.65;2.15;;;20.90;67.10;;;;;;5025379;28;20382;-68
2023/08/17 07:00:11;;;;;;;6.65;1.95;;;20.90;66.90;;;;;;5050641;28;20066;-68
2023/08/17 07:02:37;;;;;;;6.50;1.88;;;20.90;67.10;;;;;;5036428;28;20120;-67
2023/08/17 07:05:06;;;;;;;4.05;1.80;;;20.90;66.90;;;;;;5017898;28;20114;-67
2023/08/17 07:07:31;;;;;;;7.32;1.98;;;21.00;66.90;;;;;;5025794;28;20029;-67
2023/08/17 07:10:01;;;;;;;5.32;2.10;;;21.00;66.90;;;;;;5015897;28;20038;-67
2023/08/17 07:12:28;;;;;;;6.38;2.00;;;21.10;66.90;;;;;;5015688;28;20324;-67
2023/08/17 07:14:54;;;;;;;4.68;2.03;;;21.10;66.90;;;;;;5023319;28;20034;-67
2023/08/17 07:17:19;;;;;;;5.65;2.10;;;21.10;66.80;;;;;;5017495;28;20112;-68
2023/08/17 07:19:45;;;;;;;5.25;2.15;;;21.10;66.70;;;;;;5018481;28;20033;-67
2023/08/17 07:22:11;;;;;;;5.45;2.10;;;21.10;66.70;;;;;;5014205;28;20034;-67
2023/08/17 07:24:37;;;;;;;7.35;1.90;;;21.10;66.80;;;;;;5019382;28;20044;-67
2023/08/17 07:27:03;;;;;;;7.22;1.90;;;21.10;66.80;;;;;;5014343;28;20436;-68
2023/08/17 07:29:28;;;;;;;4.80;1.90;;;21.10;66.80;;;;;;5015832;28;20358;-68
2023/08/17 07:31:54;;;;;;;5.60;1.98;;;21.20;66.70;;;;;;5023981;28;20502;-69
2023/08/17 07:34:20;;;;;;;5.90;2.03;;;21.30;66.50;;;;;;5015507;28;20052;-69
2023/08/17 07:36:46;;;;;;;5.25;2.28;;;21.30;66.40;;;;;;5000214;28;20053;-69
2023/08/17 07:39:11;;;;;;;6.25;2.17;;;21.30;66.50;;;;;;5015093;28;20034;-69
2023/08/17 07:41:37;;;;;;;5.45;2.30;;;21.30;66.70;;;;;;5028392;28;20429;-69
2023/08/17 07:44:03;;;;;;;5.47;1.98;;;21.30;66.70;;;;;;5019240;28;20033;-69
2023/08/17 07:46:29;;;;;;;7.05;2.30;;;21.30;66.80;;;;;;5061021;28;20067;-69
2023/08/17 07:48:55;;;;;;;7.88;2.30;;;21.20;66.80;;;;;;5033390;28;20068;-69
2023/08/17 07:51:20;;;;;;;6.88;2.08;;;21.20;66.90;;;;;;5031594;28;20084;-69
2023/08/17 07:53:46;;;;;;;4.82;1.92;;;21.20;67.70;;;;;;5033341;28;20029;-69
2023/08/17 07:56:12;;;;;;;9.07;2.40;;;21.10;67.70;;;;;;5017051;28;20021;-69
2023/08/17 07:58:38;;;;;;;5.75;2.15;;;21.10;67.00;;;;;;5033261;28;20106;-69
2023/08/17 08:01:04;;;;;;;6.88;2.10;;;21.10;67.10;;;;;;5034628;28;20025;-69
2023/08/17 08:03:29;;;;;;;7.32;2.00;;;21.10;67.20;;;;;;5033303;28;20453;-69
2023/08/17 08:05:55;;;;;;;5.55;2.00;;;21.10;67.20;;;;;;5034561;28;20068;-69
2023/08/17 08:08:21;;;;;;;5.03;1.70;;;21.10;67.30;;;;;;5016749;28;20034;-69
2023/08/17 08:10:47;;;;;;;6.18;2.08;;;21.10;67.40;;;;;;5033563;28;20013;-69
2023/08/17 08:13:13;;;;;;;5.82;2.00;;;21.00;67.50;;;;;;5031586;28;20034;-69
2023/08/17 08:15:38;;;;;;;5.80;2.20;;;21.00;67.60;;;;;;5034295;28;20033;-69
2023/08/17 08:18:04;;;;;;;6.10;2.05;;;21.00;67.60;;;;;;5034277;28;20040;-69
2023/08/17 08:20:30;;;;;;;5.97;2.42;;;21.00;67.60;;;;;;5033457;28;20038;-68
2023/08/17 08:22:56;;;;;;;5.70;1.88;;;21.00;67.60;;;;;;5050336;28;20025;-68
2023/08/17 08:25:21;;;;;;;5.53;2.10;;;21.00;67.60;;;;;;5033469;28;20056;-69
2023/08/17 08:27:47;;;;;;;4.82;1.98;;;21.00;67.60;;;;;;5034821;28;20029;-69
2023/08/17 08:30:13;;;;;;;7.18;2.45;;;21.00;67.60;;;;;;5038487;28;20017;-69
2023/08/17 08:32:39;;;;;;;5.88;2.53;;;20.90;67.60;;;;;;5028146;28;20470;-69
2023/08/17 08:35:05;;;;;;;5.80;2.40;;;21.00;67.60;;;;;;5035969;28;20108;-68
2023/08/17 08:37:30;;;;;;;6.57;2.20;;;21.10;67.70;;;;;;5033219;28;20037;-67
2023/08/17 08:39:56;;;;;;;5.90;2.40;;;21.10;67.60;;;;;;5037828;28;20025;-67
2023/08/17 08:42:23;;;;;;;6.88;2.60;;;21.10;67.50;;;;;;5022761;28;20048;-67
2023/08/17 08:44:50;;;;;;;5.43;2.33;;;21.10;67.50;;;;;;5023356;28;20080;-67
2023/08/17 08:47:17;;;;;;;5.25;2.25;;;21.10;67.40;;;;;;5032702;28;20064;-67
2023/08/17 08:49:55;;;;;;;6.20;2.50;;;21.10;67.40;;;;;;5023421;28;20050;-68
2023/08/17 08:52:23;;;;;;;6.75;2.63;;;21.10;67.40;;;;;;5033954;28;20435;-68
2023/08/17 08:54:53;;;;;;;9.32;3.20;;;21.10;67.50;;;;;;5017902;28;20343;-68
2023/08/17 08:57:18;;;;;;;7.00;3.00;;;21.10;67.40;;;;;;5019505;28;20060;-68
2023/08/17 08:59:46;;;;;;;9.80;2.65;;;21.20;67.40;;;;;;5017824;28;20049;-68
2023/08/17 09:02:16;;;;;;;7.60;2.88;;;21.10;67.40;;;;;;5028829;28;20045;-68
2023/08/17 09:04:45;;;;;;;7.32;2.63;;;21.10;67.50;;;;;;5037357;28;20079;-68
2023/08/17 09:07:16;;;;;;;8.68;2.92;;;21.10;67.50;;;;;;5018862;28;20034;-68
2023/08/17 09:09:44;;;;;;;;;;;21.20;67.50;;;;;;5021289;28;20030;-68
2023/08/17 09:12:10;;;;;;;8.48;2.80;;;21.20;67.40;;;;;;5032144;28;19909;-68
2023/08/17 09:14:37;;;;;;;9.52;3.20;;;21.30;67.40;;;;;;5053753;28;20037;-68
2023/08/17 09:17:04;;;;;;;8.50;2.67;;;21.30;67.20;;;;;;5032037;28;20025;-68
2023/08/17 09:19:32;;;;;;;8.75;3.22;;;21.40;67.20;;;;;;5033304;28;20557;-69
2023/08/17 09:22:01;;;;;;;8.95;3.40;;;21.50;67.10;;;;;;5031062;28;20036;-68
2023/08/17 09:24:35;;;;;;;8.60;3.92;;;21.50;67.10;;;;;;5019190;28;20028;-68
2023/08/17 09:27:01;;;;;;;10.75;3.83;;;21.60;67.00;;;;;;5025029;28;20052;-68
2023/08/17 09:29:27;;;;;;;8.60;3.60;;;21.60;67.00;;;;;;5021052;28;20026;-68
2023/08/17 09:31:52;;;;;;;7.35;3.67;;;21.60;67.00;;;;;;5017092;28;20029;-68
2023/08/17 09:34:19;;;;;;;10.00;3.92;;;21.60;67.00;;;;;;5030080;28;20018;-69
2023/08/17 09:36:48;;;;;;;6.90;2.90;;;21.70;67.00;;;;;;5033418;28;20354;-68
2023/08/17 09:39:16;;;;;;;9.23;3.50;;;21.70;67.10;;;;;;5018415;28;20029;-68
2023/08/17 09:41:42;;;;;;;9.80;3.33;;;21.70;67.10;;;;;;5036225;28;20021;-68
2023/08/17 09:44:08;;;;;;;7.03;3.47;;;21.80;67.10;;;;;;5035537;28;20363;-68
2023/08/17 09:46:34;;;;;;;9.18;3.85;;;21.70;67.00;;;;;;5039103;28;20029;-68
2023/08/17 09:49:05;;;;;;;10.13;3.67;;;21.80;67.10;;;;;;5036454;28;20046;-68
2023/08/17 09:51:31;;;;;;;;;;;21.80;67.10;;;;;;5037866;28;20040;-68
2023/08/17 09:53:57;;;;;;;8.38;3.72;;;21.80;67.00;;;;;;5028964;28;20230;-68
2023/08/17 09:56:23;;;;;;;9.88;3.70;;;21.80;67.00;;;;;;5039517;28;20396;-68
2023/08/17 09:58:50;;;;;;;8.55;3.85;;;21.80;66.90;;;;;;5035467;28;20025;-68
2023/08/17 10:01:17;;;;;;;8.70;3.42;;;21.80;67.00;;;;;;5046242;28;20071;-68
2023/08/17 10:03:45;;;;;;;8.45;3.60;;;21.90;66.90;;;;;;5054142;28;20053;-68
2023/08/17 10:06:16;;;;;;;8.88;3.67;;;21.90;66.80;;;;;;5031610;28;20091;-69
2023/08/17 10:08:50;;;;;;;8.93;3.33;;;21.90;66.90;;;;;;5035109;28;20465;-68
2023/08/17 10:11:20;;;;;;;9.60;3.55;;;21.90;66.90;;;;;;5034020;28;20455;-68
2023/08/17 10:13:59;;;;;;;9.05;3.80;;;21.90;66.90;;;;;;5063247;28;20107;-68
2023/08/17 10:16:55;;;;;;;8.48;3.35;;;21.90;66.90;;;;;;5053790;28;20446;-68
2023/08/17 10:19:48;;;;;;;9.57;3.67;;;21.90;67.00;;;;;;5054634;28;20516;-69
2023/08/17 10:22:42;;;;;;;7.93;3.92;;;21.90;67.10;;;;;;5028335;28;20030;-68
2023/08/17 10:25:11;;;;;;;10.15;3.85;;;21.90;67.20;;;;;;5046617;28;20113;-68
2023/08/17 10:27:37;;;;;;;8.65;4.00;;;21.80;67.40;;;;;;5037168;28;20030;-68
2023/08/17 10:30:04;;;;;;;10.65;4.30;;;21.80;67.50;;;;;;5030803;28;20043;-68
2023/08/17 10:32:30;;;;;;;7.57;3.45;;;21.80;67.40;;;;;;5040904;28;20084;-68
2023/08/17 10:34:57;;;;;;;10.02;5.40;;;21.80;67.40;;;;;;5033962;28;20025;-68
2023/08/17 10:37:24;;;;;;;8.90;3.80;;;21.80;67.40;;;;;;5053830;28;20422;-68
2023/08/17 10:39:50;;;;;;;11.45;4.10;;;21.80;67.50;;;;;;5029446;28;20466;-68
2023/08/17 10:42:32;;;;;;;10.35;4.07;;;21.80;67.70;;;;;;5031810;28;20030;-68
2023/08/17 10:45:01;;;;;;;8.25;4.13;;;21.80;67.70;;;;;;5034156;28;20403;-68
2023/08/17 10:47:31;;;;;;;9.32;3.90;;;21.80;67.70;;;;;;5031871;28;20067;-65
2023/08/17 10:50:23;;;;;;;13.48;3.72;;;21.90;67.70;;;;;;5022518;28;20046;-66
2023/08/17 10:52:50;;;;;;;8.55;3.78;;;21.90;67.60;;;;;;5014799;28;20022;-67
2023/08/17 10:55:18;;;;;;;8.93;3.65;;;21.90;67.60;;;;;;5018454;28;20033;-68
2023/08/17 10:57:44;;;;;;;8.20;3.78;;;22.00;67.60;;;;;;5023153;28;20625;-67
2023/08/17 11:00:16;;;;;;;8.38;4.22;;;22.00;67.50;;;;;;5018373;28;20028;-68
2023/08/17 11:02:53;;;;;;;10.00;4.32;;;22.10;67.50;;;;;;5015046;28;20057;-66
2023/08/17 11:05:42;;;;;;;8.07;3.30;;;22.10;67.50;;;;;;5024101;28;20075;-67
2023/08/17 11:08:11;;;;;;;8.82;3.63;;;22.10;67.40;;;;;;5016122;28;20335;-65
2023/08/17 11:10:38;;;;;;;9.55;3.78;;;22.10;67.40;;;;;;5018722;28;20042;-65
2023/08/17 11:13:04;;;;;;;8.00;3.72;;;22.10;67.40;;;;;;5032955;28;20120;-66
2023/08/17 11:15:42;;;;;;;10.32;4.38;;;22.10;67.40;;;;;;5033291;28;20025;-69
2023/08/17 11:18:08;;;;;;;8.73;4.35;;;22.10;67.40;;;;;;5035268;28;20140;-69
2023/08/17 11:20:36;;;;;;;10.80;4.32;;;22.10;67.40;;;;;;5034279;28;20378;-69
2023/08/17 11:23:02;;;;;;;9.10;3.72;;;22.10;67.30;;;;;;5031633;28;20026;-68
2023/08/17 11:25:28;;;;;;;8.45;3.83;;;22.10;67.50;;;;;;5033946;28;20040;-69
2023/08/17 11:27:54;;;;;;;8.77;4.25;;;22.10;67.50;;;;;;5034845;28;20033;-69
2023/08/17 11:30:22;;;;;;;9.13;3.92;;;22.10;67.60;;;;;;5035235;28;20426;-69
2023/08/17 11:32:52;;;;;;;8.43;4.00;;;22.10;67.70;;;;;;5032266;28;20086;-69
2023/08/17 11:35:19;;;;;;;8.60;3.95;;;22.10;67.80;;;;;;5030989;28;20041;-69
2023/08/17 11:37:45;;;;;;;10.63;4.68;;;22.10;67.80;;;;;;5034172;28;20450;-69
2023/08/17 11:40:12;;;;;;;9.15;4.25;;;22.10;67.80;;;;;;5033635;28;20033;-69
2023/08/17 11:42:38;;;;;;;8.82;4.00;;;22.10;67.80;;;;;;5021628;28;20026;-69
2023/08/17 11:45:05;;;;;;;11.00;4.65;;;22.10;67.70;;;;;;5018918;28;20030;-70
2023/08/17 11:47:32;;;;;;;10.95;4.20;;;22.10;67.80;;;;;;5033515;28;20032;-69
2023/08/17 11:50:06;;;;;;;8.73;3.58;;;22.10;68.00;;;;;;5034294;28;20057;-69
2023/08/17 11:52:32;;;;;;;6.88;3.50;;;22.10;68.10;;;;;;5033547;28;20087;-69
2023/08/17 11:54:59;;;;;;;9.43;3.92;;;22.10;68.20;;;;;;5038960;28;20036;-69
2023/08/17 11:57:26;;;;;;;9.07;4.10;;;22.00;68.20;;;;;;5033347;28;20017;-69
2023/08/17 11:59:56;;;;;;;10.25;4.13;;;22.00;68.20;;;;;;5033392;28;20049;-68
2023/08/17 12:02:26;;;;;;;9.32;3.45;;;22.00;68.20;;;;;;5034241;28;20037;-69
2023/08/17 12:04:53;;;;;;;7.50;3.87;;;21.90;68.40;;;;;;5015895;28;20488;-69
2023/08/17 12:07:19;;;;;;;9.80;4.45;;;21.90;68.50;;;;;;5033054;28;20040;-68
2023/08/17 12:09:46;;;;;;;7.68;3.38;;;22.00;68.60;;;;;;5037052;28;20379;-69
2023/08/17 12:12:12;;;;;;;8.07;4.30;;;21.90;68.70;;;;;;5039809;28;20025;-69
2023/08/17 12:14:44;;;;;;;9.05;3.88;;;21.90;68.70;;;;;;5042159;28;20021;-69
2023/08/17 12:17:17;;;;;;;8.60;3.88;;;21.90;68.80;;;;;;5033955;28;20024;-69
2023/08/17 12:19:43;;;;;;;8.18;4.03;;;21.90;68.70;;;;;;5059639;28;20025;-69
2023/08/17 12:22:10;;;;;;;8.45;4.35;;;21.90;68.70;;;;;;5056540;28;20194;-69
2023/08/17 12:24:37;;;;;;;8.20;3.97;;;21.90;68.70;;;;;;5044658;28;20382;-69
2023/08/17 12:27:04;;;;;;;9.80;4.53;;;22.00;68.80;;;;;;5032992;28;20431;-68
2023/08/17 12:29:30;;;;;;;9.27;4.40;;;22.00;68.90;;;;;;5015653;28;20031;-69
2023/08/17 12:32:01;;;;;;;9.15;4.53;;;22.00;68.80;;;;;;5038144;28;20100;-68
2023/08/17 12:34:26;;;;;;;7.50;3.97;;;22.00;68.80;;;;;;5027079;28;20386;-69
2023/08/17 12:36:52;;;;;;;9.90;4.72;;;22.00;68.80;;;;;;5033709;28;20033;-68
2023/08/17 12:39:18;;;;;;;9.43;4.32;;;22.00;69.00;;;;;;5030847;28;20057;-68
2023/08/17 12:41:44;;;;;;;9.38;4.18;;;22.00;69.10;;;;;;5027589;28;20160;-67
2023/08/17 12:44:13;;;;;;;8.10;3.85;;;22.00;69.20;;;;;;5026459;28;20434;-68
2023/08/17 12:46:42;;;;;;;8.52;3.80;;;22.00;69.10;;;;;;5043016;28;20134;-69
2023/08/17 12:49:08;;;;;;;8.90;4.45;;;22.00;69.10;;;;;;5039620;28;20336;-68